Flight Track Log - Related Links

Times and Time Zones

All times are in EDT time to prevent confusion due to time zone crossing. See the N8170A flight status page for this flight to view local times or setup timezone preferences in your user account.

Time Position Orientation Groundspeed Altitude Reporting Facility
EDT Latitude Longitude Course Direction KTS MPH feet Rate Location/Type
Thu 04:40:53 PM 31.8414 -91.0397 53° Northeast 157 181 7,300  Level Memphis Center
Thu 04:41:53 PM 31.8644 -91.0031 36° Northeast 143 165 8,000 650 Climbing Memphis Center
Thu 04:42:53 PM 31.8958 -90.9764 33° Northeast 138 159 8,600 500 Climbing Memphis Center
Thu 04:43:53 PM 31.9272 -90.9522 45° Northeast 131 151 9,000 200 Climbing Memphis Center
Thu 04:44:53 PM 31.9567 -90.9181 56° Northeast 136 157 9,000  Level Memphis Center
Thu 04:45:53 PM 31.9861 -90.8667 43° Northeast 158 182 9,000  Level Memphis Center
Thu 04:46:53 PM 32.0197 -90.8303 43° Northeast 158 182 9,000  Level Memphis Center
Thu 04:47:53 PM 32.0533 -90.7936 49° Northeast 158 182 9,000  Level Memphis Center
Thu 04:48:53 PM 32.0825 -90.7544 43° Northeast 158 182 9,000  Level Memphis Center
Thu 04:49:53 PM 32.1161 -90.7178 43° Northeast 158 182 9,000  Level Memphis Center
Thu 04:50:53 PM 32.1475 -90.6836 25° Northeast 152 175 9,000  Level Memphis Center
Thu 04:51:53 PM 32.1831 -90.6642 33° Northeast 147 169 9,000  Level Memphis Center
Thu 04:52:53 PM 32.2186 -90.6372 41° Northeast 141 162 9,000  Level Memphis Center
Thu 04:53:53 PM 32.2522 -90.6031 35° Northeast 148 170 9,000  Level Memphis Center
Thu 04:54:53 PM 32.2875 -90.5736 34° Northeast 154 177 9,000  Level Memphis Center
Thu 04:55:53 PM 32.3211 -90.5467 33° Northeast 149 171 9,000  Level Memphis Center
Thu 04:56:53 PM 32.3567 -90.5197 35° Northeast 149 171 9,000  Level Memphis Center
Thu 04:57:53 PM 32.3922 -90.4903 35° Northeast 149 171 9,000  Level Memphis Center
Thu 04:58:53 PM 32.4275 -90.4606 33° Northeast 149 171 9,000  Level Memphis Center
Thu 04:59:53 PM 32.4631 -90.4336 33° Northeast 149 171 9,000  Level Memphis Center
Thu 05:00:53 PM 32.4986 -90.4067 31° Northeast 149 171 9,000  Level Memphis Center
Thu 05:01:53 PM 32.5361 -90.3794 36° Northeast 149 171 9,000  Level Memphis Center
Thu 05:02:53 PM 32.5697 -90.3500 34° Northeast 149 171 9,000  Level Memphis Center
Thu 05:03:53 PM 32.6072 -90.3203 32° Northeast 149 171 9,000  Level Memphis Center
Thu 05:04:53 PM 32.6406 -90.2956 35° Northeast 149 171 9,000  Level Memphis Center
Thu 05:05:53 PM 32.6739 -90.2683 33° Northeast 149 171 9,000  Level Memphis Center
Thu 05:06:53 PM 32.7094 -90.2411 35° Northeast 149 171 9,000  Level Memphis Center
Thu 05:07:53 PM 32.7450 -90.2117 34° Northeast 149 171 9,000  Level Memphis Center
Thu 05:08:53 PM 32.7825 -90.1819 33° Northeast 149 171 9,000  Level Memphis Center
Thu 05:09:53 PM 32.8178 -90.1544 35° Northeast 149 171 9,000  Level Memphis Center
Thu 05:10:53 PM 32.8533 -90.1247 31° Northeast 149 171 9,000  Level Memphis Center
Thu 05:11:53 PM 32.8908 -90.0975 35° Northeast 149 171 9,000  Level Memphis Center
Thu 05:12:53 PM 32.9261 -90.0678 33° Northeast 149 171 9,000  Level Memphis Center
Thu 05:13:53 PM 32.9617 -90.0403 33° Northeast 149 171 9,000  Level Memphis Center
Thu 05:14:53 PM 32.9972 -90.0131 35° Northeast 149 171 9,000  Level Memphis Center
Thu 05:15:53 PM 33.0325 -89.9831 35° Northeast 149 171 9,000  Level Memphis Center
Thu 05:16:53 PM 33.0658 -89.9556 34° Northeast 149 171 9,000  Level Memphis Center
Thu 05:17:53 PM 33.1033 -89.9258 43° Northeast 149 171 9,000  Level Memphis Center
Thu 05:18:53 PM 33.1344 -89.8908 47° Northeast 149 171 9,000  Level Memphis Center
Thu 05:19:53 PM 33.1636 -89.8536 17° North 149 171 9,000  Level Memphis Center
Thu 05:20:53 PM 33.2053 -89.8383 28° Northeast 149 171 9,000  Level Memphis Center
Thu 05:21:53 PM 33.2447 -89.8133 33° Northeast 149 171 9,000  Level Memphis Center
Thu 05:22:53 PM 33.2800 -89.7856 35° Northeast 149 171 9,000  Level Memphis Center
Thu 05:23:53 PM 33.3156 -89.7556 32° Northeast 154 177 9,000  Level Memphis Center
Thu 05:24:53 PM 33.3528 -89.7281 35° Northeast 154 177 9,000  Level Memphis Center
Thu 05:25:53 PM 33.3883 -89.6981 40° Northeast 154 177 9,000  Level Memphis Center
Thu 05:26:53 PM 33.4214 -89.6653 33° Northeast 149 171 9,000 50 Level Memphis Center
Thu 05:27:53 PM 33.4567 -89.6378 27° Northeast 149 171 9,100 50 Climbing Memphis Center
Thu 05:28:53 PM 33.4942 -89.6150 North 149 171 9,100 -50 Level Memphis Center
Thu 05:29:53 PM 33.5358 -89.6069 53° Northeast 144 166 9,000  Descending Memphis Center
Thu 05:30:53 PM 33.5628 -89.5644 38° Northeast 139 160 9,100 50 Climbing Memphis Center
Thu 05:31:53 PM 33.5981 -89.5317 34° Northeast 146 168 9,100  Level Memphis Center
Thu 05:32:53 PM 33.6356 -89.5014 38° Northeast 153 176 9,100  Level Memphis Center
Thu 05:33:53 PM 33.6706 -89.4686 32° Northeast 153 176 9,100  Level Memphis Center
Thu 05:34:53 PM 33.7081 -89.4408 36° Northeast 153 176 9,100  Level Memphis Center
Thu 05:35:53 PM 33.7433 -89.4103 34° Northeast 153 176 9,100  Level Memphis Center
Thu 05:36:53 PM 33.7806 -89.3800 35° Northeast 153 176 9,100  Level Memphis Center
Thu 05:37:53 PM 33.8222 -89.3444 35° Northeast 153 176 9,100  Level Memphis Center
Thu 05:38:53 PM 33.8553 -89.3167 36° Northeast 153 176 9,100 -50 Level Memphis Center
Thu 05:39:53 PM 33.8925 -89.2836 34° Northeast 159 183 9,000 -50 Descending Memphis Center
Thu 05:40:53 PM 33.9297 -89.2531 32° Northeast 154 177 9,000 50 Level Memphis Center
Thu 05:41:53 PM 33.9672 -89.2250 36° Northeast 154 177 9,100  Climbing Memphis Center
Thu 05:42:53 PM 34.0022 -89.1944 32° Northeast 154 177 9,000 -50 Descending Memphis Center
Thu 05:43:53 PM 34.0397 -89.1664 36° Northeast 149 171 9,000  Level Memphis Center
Thu 05:44:53 PM 34.0769 -89.1333 33° Northeast 149 171 9,000  Level Memphis Center
Thu 05:45:53 PM 34.1183 -89.1003 37° Northeast 154 177 9,000  Level Memphis Center
Thu 05:46:53 PM 34.1556 -89.0669 33° Northeast 154 177 9,000  Level Memphis Center
Thu 05:47:53 PM 34.1908 -89.0389 34° Northeast 148 170 9,000  Level Memphis Center
Thu 05:48:53 PM 34.2281 -89.0081 33° Northeast 156 180 9,000  Level Memphis Center
Thu 05:49:53 PM 34.2672 -88.9775 36° Northeast 156 180 9,000  Level Memphis Center
Thu 05:50:53 PM 34.3044 -88.9442 31° Northeast 156 180 9,000  Level Memphis Center
Thu 05:51:53 PM 34.3439 -88.9158 37° Northeast 161 185 9,000  Level Memphis Center
Thu 05:52:53 PM 34.3808 -88.8825 36° Northeast 161 185 9,000  Level Memphis Center
Thu 05:53:53 PM 34.4161 -88.8517 46° Northeast 161 185 9,000  Level Memphis Center
Thu 05:54:53 PM 34.4428 -88.8183 70° East 156 180 9,000  Level Memphis Center
Thu 05:55:53 PM 34.4589 -88.7653 71° East 150 173 9,000  Level Memphis Center
Thu 05:56:53 PM 34.4747 -88.7094 69° East 156 180 9,000  Level Memphis Center
Thu 05:57:53 PM 34.4908 -88.6589 70° East 156 180 9,000  Level Memphis Center
Thu 05:58:53 PM 34.5067 -88.6056 69° East 156 180 9,000  Level Memphis Center
Thu 05:59:53 PM 34.5228 -88.5547 68° East 156 180 9,000  Level Memphis Center
Thu 06:00:53 PM 34.5406 -88.5014 70° East 156 180 9,000  Level Memphis Center
Thu 06:01:53 PM 34.5567 -88.4481 68° East 161 185 9,000  Level Memphis Center
Thu 06:02:53 PM 34.5725 -88.3997 69° East 161 185 9,000  Level Memphis Center
Thu 06:03:53 PM 34.5883 -88.3489 70° East 161 185 9,000  Level Memphis Center
Thu 06:04:53 PM 34.6042 -88.2956 68° East 161 185 9,000  Level Memphis Center
Thu 06:05:53 PM 34.6219 -88.2422 70° East 166 191 9,000  Level Memphis Center
Thu 06:06:53 PM 34.6378 -88.1889 69° East 166 191 9,000 50 Level Memphis Center
Thu 06:07:53 PM 34.6536 -88.1378 68° East 171 197 9,100 50 Climbing Memphis Center
Thu 06:08:53 PM 34.6733 -88.0794 69° East 171 197 9,100  Level Memphis Center
Thu 06:09:53 PM 34.6911 -88.0233 70° East 171 197 9,100  Level Memphis Center
Thu 06:10:53 PM 34.7069 -87.9697 68° East 171 197 9,100  Level Memphis Center
Thu 06:11:53 PM 34.7244 -87.9161 71° East 171 197 9,100  Level Memphis Center
Thu 06:12:53 PM 34.7400 -87.8603 68° East 171 197 9,100  Level Memphis Center
Thu 06:13:53 PM 34.7558 -87.8117 69° East 171 197 9,100  Level Memphis Center
Thu 06:14:53 PM 34.7733 -87.7556 69° East 171 197 9,100  Level Memphis Center
Thu 06:15:53 PM 34.7911 -87.6994 84° East 171 197 9,100  Level Memphis Center
Thu 06:16:53 PM 34.7961 -87.6411 89° East 171 197 9,100  Level Memphis Center
Thu 06:17:53 PM 34.7969 -87.5828 89° East 165 190 9,100  Level Memphis Center
Thu 06:18:53 PM 34.7975 -87.5169 85° East 165 190 9,100  Level Memphis Center
Thu 06:19:53 PM 34.8022 -87.4561 84° East 165 190 9,100  Level Memphis Center
Thu 06:20:53 PM 34.8072 -87.3978 64° Northeast 165 190 9,100 -50 Level Memphis Center
Thu 06:21:53 PM 34.8289 -87.3439 72° East 165 190 9,000 -50 Descending Memphis Center
Thu 06:22:53 PM 34.8442 -87.2853 69° East 165 190 9,000  Level Memphis Center
Thu 06:23:53 PM 34.8614 -87.2314 60° Northeast 170 196 9,000 50 Level Memphis Center
Thu 06:24:53 PM 34.8833 -87.1850 57° Northeast 170 196 9,100  Climbing Memphis Center
Thu 06:25:53 PM 34.9111 -87.1333 68° East 176 203 9,000 -50 Descending Memphis Center
Thu 06:26:53 PM 34.9286 -87.0794 72° East 176 203 9,000  Level Memphis Center
Thu 06:27:53 PM 34.9436 -87.0233 84° East 171 197 9,000  Level Memphis Center
Thu 06:28:53 PM 34.9483 -86.9647 73° East 171 197 9,000  Level Memphis Center
Thu 06:29:53 PM 34.9633 -86.9058 71° East 171 197 9,000  Level Memphis Center
Thu 06:30:53 PM 34.9806 -86.8444 69° East 171 197 9,000  Level Memphis Center
Thu 06:31:53 PM 34.9978 -86.7903 69° East 171 197 9,000  Level Memphis Center
Thu 06:37:05 PM 35.0892 -86.5022 71° East 176 203 9,000  Level Memphis Center
Thu 06:38:05 PM 35.1061 -86.4406 69° East 182 209 9,000  Level Memphis Center
Thu 06:39:05 PM 35.1231 -86.3867 68° East 182 209 9,000  Level Memphis Center
Thu 06:40:05 PM 35.1403 -86.3350 70° East 163 188 9,000  Level Memphis Center
Thu 06:41:05 PM 35.1592 -86.2731 69° East 171 197 9,000  Level Memphis Center
Thu 06:42:05 PM 35.1761 -86.2189 72° East 176 203 9,000  Level Memphis Center
Thu 06:43:05 PM 35.1928 -86.1572 72° East 176 203 9,000  Level Memphis Center
Thu 06:44:05 PM 35.2075 -86.1006 67° East 171 197 9,000  Level Memphis Center
Thu 06:45:05 PM 35.2264 -86.0461 69° East 171 197 9,000  Level Memphis Center
Thu 06:46:05 PM 35.2433 -85.9919 69° East 171 197 9,000  Level Memphis Center
Thu 06:47:05 PM 35.2603 -85.9375 70° East 171 197 9,000  Level Memphis Center
Thu 06:54:15 PM 35.3788 -85.5431 70° East  Level FlightAware Approximate
Thu 06:55:15 PM 35.3952 -85.4880 70° East  Level FlightAware Approximate
Thu 06:56:15 PM 35.4116 -85.4328 81° East  Level FlightAware Approximate
Thu 06:57:15 PM 35.4190 -85.3750 70° East  Level FlightAware Approximate
Thu 06:58:15 PM 35.4355 -85.3198 70° East  Level FlightAware Approximate
Thu 06:59:15 PM 35.4520 -85.2647 70° East  Level FlightAware Approximate
Thu 07:00:15 PM 35.4685 -85.2095 70° East  Level FlightAware Approximate
Thu 07:01:15 PM 35.4849 -85.1543 70° East  Level FlightAware Approximate
Thu 07:02:15 PM 35.5013 -85.0991 70° East  Level FlightAware Approximate
Thu 07:03:15 PM 35.5177 -85.0439 70° East  Level FlightAware Approximate
Thu 07:04:15 PM 35.5340 -84.9886 70° East  Level FlightAware Approximate
Thu 07:05:15 PM 35.5503 -84.9333 70° East  Level FlightAware Approximate
Thu 07:06:15 PM 35.5666 -84.8781 66° East  Level FlightAware Approximate
Thu 07:07:15 PM 35.5845 -84.8292 70° East  Level FlightAware Approximate
Thu 07:08:15 PM 35.6007 -84.7738 70° East  Level FlightAware Approximate
Thu 07:09:15 PM 35.6169 -84.7185 70° East  Level FlightAware Approximate
Thu 07:10:15 PM 35.6330 -84.6630 70° East  Level FlightAware Approximate
Thu 07:11:15 PM 35.6491 -84.6076 70° East  Level FlightAware Approximate
Thu 07:12:15 PM 35.6652 -84.5521 70° East  Level FlightAware Approximate
Thu 07:13:15 PM 35.6813 -84.4966 70° East  Level FlightAware Approximate
Thu 07:14:15 PM 35.6973 -84.4411 70° East  Level FlightAware Approximate
Thu 07:15:15 PM 35.7131 -84.3863 70° East  Level FlightAware Approximate
Thu 07:16:15 PM 35.7289 -84.3314 71° East  Level FlightAware Approximate
Thu 07:17:15 PM 35.7447 -84.2765 71° East  Level FlightAware Approximate
Thu 07:18:15 PM 35.7604 -84.2216 71° East  Level FlightAware Approximate
Thu 07:19:15 PM 35.7761 -84.1666 71° East  Level FlightAware Approximate
Thu 07:20:15 PM 35.7918 -84.1117 71° East  Level FlightAware Approximate
Thu 07:21:15 PM 35.8074 -84.0567 71° East  Level FlightAware Approximate
Thu 07:22:15 PM 35.8231 -84.0017 71° East  Level FlightAware Approximate
Thu 07:23:15 PM 35.8387 -83.9466 71° East  Level FlightAware Approximate
Thu 07:24:15 PM 35.8543 -83.8916 71° East  Level FlightAware Approximate
Thu 07:25:15 PM 35.8699 -83.8365 71° East  Level FlightAware Approximate
Thu 07:26:15 PM 35.8854 -83.7814 71° East  Level FlightAware Approximate
Thu 07:27:15 PM 35.9009 -83.7263 71° East  Level FlightAware Approximate
Thu 07:28:15 PM 35.9164 -83.6712 71° East  Level FlightAware Approximate
Thu 07:29:15 PM 35.9319 -83.6161 71° East  Level FlightAware Approximate
Thu 07:30:15 PM 35.9473 -83.5609 71° East  Level FlightAware Approximate
Thu 07:31:15 PM 35.9627 -83.5057 71° East  Level FlightAware Approximate
Thu 07:32:15 PM 35.9781 -83.4504 71° East  Level FlightAware Approximate
Thu 07:33:15 PM 35.9935 -83.3952 71° East  Level FlightAware Approximate
Thu 07:34:15 PM 36.0088 -83.3399 71° East  Level FlightAware Approximate
Thu 07:35:15 PM 36.0241 -83.2847 71° East  Level FlightAware Approximate
Thu 07:36:15 PM 36.0394 -83.2293 71° East  Level FlightAware Approximate
Thu 07:37:15 PM 36.0546 -83.1740 80° East  Level FlightAware Approximate
Thu 07:38:15 PM 36.0625 -83.1200 71° East  Level FlightAware Approximate
Thu 07:39:15 PM 36.0781 -83.0648 71° East  Level FlightAware Approximate
Thu 07:40:15 PM 36.0936 -83.0096 71° East  Level FlightAware Approximate
Thu 07:41:15 PM 36.1090 -82.9543 71° East  Level FlightAware Approximate
Thu 07:42:15 PM 36.1245 -82.8990 71° East  Level FlightAware Approximate
Thu 07:43:15 PM 36.1399 -82.8437 71° East  Level FlightAware Approximate
Thu 07:44:15 PM 36.1553 -82.7883 71° East  Level FlightAware Approximate
Thu 07:45:15 PM 36.1707 -82.7330 71° East  Level FlightAware Approximate
Thu 07:46:15 PM 36.1860 -82.6776 78° East  Level FlightAware Approximate
Thu 07:47:15 PM 36.1954 -82.6219 70° East  Level FlightAware Approximate
Thu 07:48:15 PM 36.2112 -82.5667 71° East  Level FlightAware Approximate
Thu 07:49:15 PM 36.2269 -82.5115 71° East  Level FlightAware Approximate
Thu 07:50:15 PM 36.2426 -82.4562 71° East  Level FlightAware Approximate
Thu 07:51:15 PM 36.2584 -82.4009 71° East  Level FlightAware Approximate
Thu 07:52:15 PM 36.2740 -82.3456 71° East  Level FlightAware Approximate
Thu 07:53:15 PM 36.2897 -82.2903 71° East  Level FlightAware Approximate
Thu 07:54:15 PM 36.3053 -82.2350 71° East  Level FlightAware Approximate
Thu 07:55:15 PM 36.3209 -82.1796 78° East  Level FlightAware Approximate
Thu 07:56:15 PM 36.3304 -82.1254 67° East  Level FlightAware Approximate
Thu 07:57:15 PM 36.3485 -82.0712 68° East  Level FlightAware Approximate
Thu 07:58:15 PM 36.3666 -82.0169 68° East  Level FlightAware Approximate

Login

Don't have an account? Register now (free) for customized features, flight alerts, and more!